sensor_id;sensor_type;location;lat;lon;timestamp;P1;durP1;ratioP1;P2;durP2;ratioP2
29120;SDS011;16191;49.548;8.658;2024-03-02T00:00:08;23.00;;;14.00;;
29120;SDS011;16191;49.548;8.658;2024-03-02T00:02:42;25.80;;;14.73;;
29120;SDS011;16191;49.548;8.658;2024-03-02T00:05:13;25.08;;;13.65;;
29120;SDS011;16191;49.548;8.658;2024-03-02T00:07:42;22.33;;;13.30;;
29120;SDS011;16191;49.548;8.658;2024-03-02T00:10:10;20.83;;;13.02;;
29120;SDS011;16191;49.548;8.658;2024-03-02T00:12:39;26.35;;;13.63;;
29120;SDS011;16191;49.548;8.658;2024-03-02T00:17:56;24.92;;;14.05;;
29120;SDS011;16191;49.548;8.658;2024-03-02T00:20:23;25.83;;;13.77;;
29120;SDS011;16191;49.548;8.658;2024-03-02T00:22:50;20.52;;;12.85;;
29120;SDS011;16191;49.548;8.658;2024-03-02T00:25:17;20.55;;;12.73;;
29120;SDS011;16191;49.548;8.658;2024-03-02T00:27:47;24.30;;;13.25;;
29120;SDS011;16191;49.548;8.658;2024-03-02T00:30:40;24.77;;;14.25;;
29120;SDS011;16191;49.548;8.658;2024-03-02T00:33:25;23.50;;;13.40;;
29120;SDS011;16191;49.548;8.658;2024-03-02T00:35:55;23.58;;;13.48;;
29120;SDS011;16191;49.548;8.658;2024-03-02T00:38:23;23.70;;;14.10;;
29120;SDS011;16191;49.548;8.658;2024-03-02T00:40:51;28.08;;;14.20;;
29120;SDS011;16191;49.548;8.658;2024-03-02T00:46:17;20.63;;;13.48;;
29120;SDS011;16191;49.548;8.658;2024-03-02T00:48:58;24.48;;;13.25;;
29120;SDS011;16191;49.548;8.658;2024-03-02T00:51:30;21.58;;;13.10;;
29120;SDS011;16191;49.548;8.658;2024-03-02T00:53:59;22.40;;;12.48;;
29120;SDS011;16191;49.548;8.658;2024-03-02T00:56:34;23.50;;;13.50;;
29120;SDS011;16191;49.548;8.658;2024-03-02T00:59:03;23.02;;;12.90;;
29120;SDS011;16191;49.548;8.658;2024-03-02T01:01:30;22.85;;;12.77;;
29120;SDS011;16191;49.548;8.658;2024-03-02T01:03:56;21.77;;;12.52;;
29120;SDS011;16191;49.548;8.658;2024-03-02T01:06:23;20.38;;;11.98;;
29120;SDS011;16191;49.548;8.658;2024-03-02T01:08:50;19.35;;;11.63;;
29120;SDS011;16191;49.548;8.658;2024-03-02T01:11:19;24.15;;;13.55;;
29120;SDS011;16191;49.548;8.658;2024-03-02T01:13:49;20.20;;;13.00;;
29120;SDS011;16191;49.548;8.658;2024-03-02T01:16:16;20.75;;;12.32;;
29120;SDS011;16191;49.548;8.658;2024-03-02T01:18:43;22.10;;;12.38;;
29120;SDS011;16191;49.548;8.658;2024-03-02T01:21:10;20.33;;;11.82;;
29120;SDS011;16191;49.548;8.658;2024-03-02T01:23:36;19.13;;;11.52;;
29120;SDS011;16191;49.548;8.658;2024-03-02T01:26:03;19.27;;;11.48;;
29120;SDS011;16191;49.548;8.658;2024-03-02T01:28:30;16.98;;;11.35;;
29120;SDS011;16191;49.548;8.658;2024-03-02T01:30:57;19.00;;;10.07;;
29120;SDS011;16191;49.548;8.658;2024-03-02T01:33:23;16.40;;;10.70;;
29120;SDS011;16191;49.548;8.658;2024-03-02T01:35:51;18.95;;;11.23;;
29120;SDS011;16191;49.548;8.658;2024-03-02T01:38:17;18.60;;;11.20;;
29120;SDS011;16191;49.548;8.658;2024-03-02T01:40:44;19.20;;;11.05;;
29120;SDS011;16191;49.548;8.658;2024-03-02T01:43:11;16.52;;;9.75;;
29120;SDS011;16191;49.548;8.658;2024-03-02T01:45:38;17.88;;;10.15;;
29120;SDS011;16191;49.548;8.658;2024-03-02T01:48:05;16.08;;;10.15;;
29120;SDS011;16191;49.548;8.658;2024-03-02T01:50:33;17.60;;;10.77;;
29120;SDS011;16191;49.548;8.658;2024-03-02T01:53:01;19.30;;;10.93;;
29120;SDS011;16191;49.548;8.658;2024-03-02T01:55:31;19.35;;;10.95;;
29120;SDS011;16191;49.548;8.658;2024-03-02T01:57:59;21.20;;;11.43;;
29120;SDS011;16191;49.548;8.658;2024-03-02T02:00:26;18.00;;;10.43;;
29120;SDS011;16191;49.548;8.658;2024-03-02T02:02:54;20.13;;;11.52;;
29120;SDS011;16191;49.548;8.658;2024-03-02T02:05:21;18.23;;;11.10;;
29120;SDS011;16191;49.548;8.658;2024-03-02T02:07:48;20.00;;;11.82;;
29120;SDS011;16191;49.548;8.658;2024-03-02T02:10:15;22.63;;;13.00;;
29120;SDS011;16191;49.548;8.658;2024-03-02T02:12:42;22.98;;;12.45;;
29120;SDS011;16191;49.548;8.658;2024-03-02T02:17:49;20.67;;;12.23;;
29120;SDS011;16191;49.548;8.658;2024-03-02T02:20:16;21.02;;;11.88;;
29120;SDS011;16191;49.548;8.658;2024-03-02T02:22:59;19.65;;;12.77;;
29120;SDS011;16191;49.548;8.658;2024-03-02T02:25:36;19.33;;;11.93;;
29120;SDS011;16191;49.548;8.658;2024-03-02T02:28:03;20.55;;;12.77;;
29120;SDS011;16191;49.548;8.658;2024-03-02T02:30:31;21.27;;;12.50;;
29120;SDS011;16191;49.548;8.658;2024-03-02T02:32:58;21.90;;;12.57;;
29120;SDS011;16191;49.548;8.658;2024-03-02T02:35:26;23.00;;;11.77;;
29120;SDS011;16191;49.548;8.658;2024-03-02T02:37:56;19.70;;;12.55;;
29120;SDS011;16191;49.548;8.658;2024-03-02T02:40:43;20.63;;;12.80;;
29120;SDS011;16191;49.548;8.658;2024-03-02T02:43:30;23.58;;;12.65;;
29120;SDS011;16191;49.548;8.658;2024-03-02T02:46:17;23.65;;;12.20;;
29120;SDS011;16191;49.548;8.658;2024-03-02T02:49:03;18.98;;;11.38;;
29120;SDS011;16191;49.548;8.658;2024-03-02T02:51:50;18.58;;;11.25;;
29120;SDS011;16191;49.548;8.658;2024-03-02T02:54:37;20.95;;;12.60;;
29120;SDS011;16191;49.548;8.658;2024-03-02T02:57:04;16.98;;;11.05;;
29120;SDS011;16191;49.548;8.658;2024-03-02T02:59:31;22.88;;;11.63;;
29120;SDS011;16191;49.548;8.658;2024-03-02T03:01:57;20.90;;;11.65;;
29120;SDS011;16191;49.548;8.658;2024-03-02T03:04:24;17.80;;;10.60;;
29120;SDS011;16191;49.548;8.658;2024-03-02T03:06:51;18.10;;;11.57;;
29120;SDS011;16191;49.548;8.658;2024-03-02T03:09:18;21.30;;;11.70;;
29120;SDS011;16191;49.548;8.658;2024-03-02T03:11:44;17.90;;;11.43;;
29120;SDS011;16191;49.548;8.658;2024-03-02T03:14:11;23.23;;;11.27;;
29120;SDS011;16191;49.548;8.658;2024-03-02T03:16:38;18.90;;;12.07;;
29120;SDS011;16191;49.548;8.658;2024-03-02T03:19:05;17.48;;;11.70;;
29120;SDS011;16191;49.548;8.658;2024-03-02T03:21:32;18.40;;;11.20;;
29120;SDS011;16191;49.548;8.658;2024-03-02T03:23:58;19.98;;;11.32;;
29120;SDS011;16191;49.548;8.658;2024-03-02T03:26:25;20.58;;;11.73;;
29120;SDS011;16191;49.548;8.658;2024-03-02T03:28:52;19.33;;;11.18;;
29120;SDS011;16191;49.548;8.658;2024-03-02T03:31:18;17.55;;;10.55;;
29120;SDS011;16191;49.548;8.658;2024-03-02T03:33:45;19.08;;;10.98;;
29120;SDS011;16191;49.548;8.658;2024-03-02T03:36:12;17.70;;;10.38;;
29120;SDS011;16191;49.548;8.658;2024-03-02T03:38:38;15.00;;;10.13;;
29120;SDS011;16191;49.548;8.658;2024-03-02T03:41:06;17.88;;;10.63;;
29120;SDS011;16191;49.548;8.658;2024-03-02T03:43:33;17.00;;;10.73;;
29120;SDS011;16191;49.548;8.658;2024-03-02T03:46:00;15.80;;;10.05;;
29120;SDS011;16191;49.548;8.658;2024-03-02T03:48:26;18.73;;;10.38;;
29120;SDS011;16191;49.548;8.658;2024-03-02T03:50:57;17.00;;;10.75;;
29120;SDS011;16191;49.548;8.658;2024-03-02T03:53:24;16.10;;;10.10;;
29120;SDS011;16191;49.548;8.658;2024-03-02T03:55:50;16.73;;;10.88;;
29120;SDS011;16191;49.548;8.658;2024-03-02T03:58:17;15.27;;;9.27;;
29120;SDS011;16191;49.548;8.658;2024-03-02T04:00:48;16.75;;;9.82;;
29120;SDS011;16191;49.548;8.658;2024-03-02T04:03:15;20.55;;;11.48;;
29120;SDS011;16191;49.548;8.658;2024-03-02T04:05:42;18.08;;;10.68;;
29120;SDS011;16191;49.548;8.658;2024-03-02T04:08:08;16.40;;;10.02;;
29120;SDS011;16191;49.548;8.658;2024-03-02T04:10:35;15.65;;;9.88;;
29120;SDS011;16191;49.548;8.658;2024-03-02T04:13:02;18.05;;;10.43;;
29120;SDS011;16191;49.548;8.658;2024-03-02T04:15:29;15.63;;;10.38;;
29120;SDS011;16191;49.548;8.658;2024-03-02T04:17:56;15.98;;;10.38;;
29120;SDS011;16191;49.548;8.658;2024-03-02T04:20:22;17.58;;;11.25;;
29120;SDS011;16191;49.548;8.658;2024-03-02T04:22:49;17.20;;;10.20;;
29120;SDS011;16191;49.548;8.658;2024-03-02T04:25:16;18.63;;;10.77;;
29120;SDS011;16191;49.548;8.658;2024-03-02T04:27:42;20.40;;;10.55;;
29120;SDS011;16191;49.548;8.658;2024-03-02T04:30:09;18.33;;;10.60;;
29120;SDS011;16191;49.548;8.658;2024-03-02T04:32:36;17.05;;;10.00;;
29120;SDS011;16191;49.548;8.658;2024-03-02T04:35:04;16.60;;;10.07;;
29120;SDS011;16191;49.548;8.658;2024-03-02T04:37:33;14.65;;;9.32;;
29120;SDS011;16191;49.548;8.658;2024-03-02T04:40:00;14.82;;;8.93;;
29120;SDS011;16191;49.548;8.658;2024-03-02T04:42:27;20.60;;;10.32;;
29120;SDS011;16191;49.548;8.658;2024-03-02T04:44:54;15.00;;;9.18;;
29120;SDS011;16191;49.548;8.658;2024-03-02T04:47:21;14.55;;;9.10;;
29120;SDS011;16191;49.548;8.658;2024-03-02T04:49:49;14.57;;;9.02;;
29120;SDS011;16191;49.548;8.658;2024-03-02T04:52:15;14.93;;;9.07;;
29120;SDS011;16191;49.548;8.658;2024-03-02T04:54:43;15.02;;;8.82;;
29120;SDS011;16191;49.548;8.658;2024-03-02T04:57:45;13.00;;;8.38;;
29120;SDS011;16191;49.548;8.658;2024-03-02T05:00:13;13.35;;;8.48;;
29120;SDS011;16191;49.548;8.658;2024-03-02T05:02:40;15.68;;;8.15;;
29120;SDS011;16191;49.548;8.658;2024-03-02T05:05:06;14.27;;;8.45;;
29120;SDS011;16191;49.548;8.658;2024-03-02T05:07:33;13.45;;;8.30;;
29120;SDS011;16191;49.548;8.658;2024-03-02T05:10:00;15.23;;;8.77;;
29120;SDS011;16191;49.548;8.658;2024-03-02T05:12:27;14.02;;;8.52;;
29120;SDS011;16191;49.548;8.658;2024-03-02T05:15:09;12.95;;;8.60;;
29120;SDS011;16191;49.548;8.658;2024-03-02T05:17:37;13.43;;;8.80;;
29120;SDS011;16191;49.548;8.658;2024-03-02T05:20:05;12.75;;;7.70;;
29120;SDS011;16191;49.548;8.658;2024-03-02T05:22:34;14.85;;;8.35;;
29120;SDS011;16191;49.548;8.658;2024-03-02T05:25:02;15.10;;;7.82;;
29120;SDS011;16191;49.548;8.658;2024-03-02T05:27:32;13.65;;;9.07;;
29120;SDS011;16191;49.548;8.658;2024-03-02T05:30:00;13.90;;;8.48;;
29120;SDS011;16191;49.548;8.658;2024-03-02T05:32:27;17.08;;;8.90;;
29120;SDS011;16191;49.548;8.658;2024-03-02T05:34:54;17.48;;;9.63;;
29120;SDS011;16191;49.548;8.658;2024-03-02T05:37:21;18.08;;;9.80;;
29120;SDS011;16191;49.548;8.658;2024-03-02T05:39:48;14.90;;;8.80;;
29120;SDS011;16191;49.548;8.658;2024-03-02T05:42:15;15.77;;;9.50;;
29120;SDS011;16191;49.548;8.658;2024-03-02T05:44:43;20.02;;;10.02;;
29120;SDS011;16191;49.548;8.658;2024-03-02T05:47:10;21.27;;;11.02;;
29120;SDS011;16191;49.548;8.658;2024-03-02T05:49:37;17.00;;;9.80;;
29120;SDS011;16191;49.548;8.658;2024-03-02T05:52:03;17.95;;;10.50;;
29120;SDS011;16191;49.548;8.658;2024-03-02T05:54:30;16.73;;;10.05;;
29120;SDS011;16191;49.548;8.658;2024-03-02T05:56:57;14.65;;;9.68;;
29120;SDS011;16191;49.548;8.658;2024-03-02T05:59:43;14.88;;;9.45;;
29120;SDS011;16191;49.548;8.658;2024-03-02T06:02:12;14.57;;;9.30;;
29120;SDS011;16191;49.548;8.658;2024-03-02T06:04:39;15.85;;;9.75;;
29120;SDS011;16191;49.548;8.658;2024-03-02T06:07:06;15.77;;;9.90;;
29120;SDS011;16191;49.548;8.658;2024-03-02T06:09:33;17.73;;;10.65;;
29120;SDS011;16191;49.548;8.658;2024-03-02T06:11:59;16.27;;;10.40;;
29120;SDS011;16191;49.548;8.658;2024-03-02T06:14:26;14.85;;;9.60;;
29120;SDS011;16191;49.548;8.658;2024-03-02T06:16:53;15.52;;;9.32;;
29120;SDS011;16191;49.548;8.658;2024-03-02T06:19:20;14.50;;;9.30;;
29120;SDS011;16191;49.548;8.658;2024-03-02T06:21:47;15.48;;;9.88;;
29120;SDS011;16191;49.548;8.658;2024-03-02T06:24:13;18.17;;;10.63;;
29120;SDS011;16191;49.548;8.658;2024-03-02T06:26:40;18.67;;;10.73;;
29120;SDS011;16191;49.548;8.658;2024-03-02T06:29:06;14.63;;;9.95;;
29120;SDS011;16191;49.548;8.658;2024-03-02T06:31:34;16.13;;;10.35;;
29120;SDS011;16191;49.548;8.658;2024-03-02T06:34:01;16.15;;;10.60;;
29120;SDS011;16191;49.548;8.658;2024-03-02T06:36:30;19.67;;;10.55;;
29120;SDS011;16191;49.548;8.658;2024-03-02T06:38:57;17.77;;;10.10;;
29120;SDS011;16191;49.548;8.658;2024-03-02T06:41:23;16.73;;;10.40;;
29120;SDS011;16191;49.548;8.658;2024-03-02T06:43:50;16.10;;;10.00;;
29120;SDS011;16191;49.548;8.658;2024-03-02T06:46:20;16.88;;;10.88;;
29120;SDS011;16191;49.548;8.658;2024-03-02T06:48:47;18.38;;;10.43;;
29120;SDS011;16191;49.548;8.658;2024-03-02T06:51:14;17.33;;;10.77;;
29120;SDS011;16191;49.548;8.658;2024-03-02T06:53:42;17.10;;;11.00;;
29120;SDS011;16191;49.548;8.658;2024-03-02T06:56:09;15.63;;;10.65;;
29120;SDS011;16191;49.548;8.658;2024-03-02T06:58:35;18.00;;;11.38;;
29120;SDS011;16191;49.548;8.658;2024-03-02T07:01:02;19.25;;;10.95;;
29120;SDS011;16191;49.548;8.658;2024-03-02T07:03:29;18.80;;;10.15;;
29120;SDS011;16191;49.548;8.658;2024-03-02T07:05:56;18.35;;;10.55;;
29120;SDS011;16191;49.548;8.658;2024-03-02T07:08:23;16.00;;;10.20;;
29120;SDS011;16191;49.548;8.658;2024-03-02T07:10:50;17.85;;;11.20;;
29120;SDS011;16191;49.548;8.658;2024-03-02T07:13:17;22.58;;;12.30;;
29120;SDS011;16191;49.548;8.658;2024-03-02T07:15:44;17.30;;;11.43;;
29120;SDS011;16191;49.548;8.658;2024-03-02T07:18:29;19.35;;;11.30;;
29120;SDS011;16191;49.548;8.658;2024-03-02T07:20:57;15.77;;;11.05;;
29120;SDS011;16191;49.548;8.658;2024-03-02T07:23:27;16.38;;;11.00;;
29120;SDS011;16191;49.548;8.658;2024-03-02T07:25:54;17.65;;;11.02;;
29120;SDS011;16191;49.548;8.658;2024-03-02T07:28:25;20.30;;;11.13;;
29120;SDS011;16191;49.548;8.658;2024-03-02T07:33:26;15.73;;;10.05;;
29120;SDS011;16191;49.548;8.658;2024-03-02T07:35:53;16.45;;;10.63;;
29120;SDS011;16191;49.548;8.658;2024-03-02T07:38:21;19.02;;;10.75;;
29120;SDS011;16191;49.548;8.658;2024-03-02T07:40:49;16.85;;;10.68;;
29120;SDS011;16191;49.548;8.658;2024-03-02T07:43:19;20.65;;;9.88;;
29120;SDS011;16191;49.548;8.658;2024-03-02T07:45:47;15.75;;;10.80;;
29120;SDS011;16191;49.548;8.658;2024-03-02T07:48:16;17.17;;;10.75;;
29120;SDS011;16191;49.548;8.658;2024-03-02T07:50:43;16.40;;;9.95;;
29120;SDS011;16191;49.548;8.658;2024-03-02T07:53:09;15.23;;;10.48;;
29120;SDS011;16191;49.548;8.658;2024-03-02T07:55:36;15.52;;;10.55;;
29120;SDS011;16191;49.548;8.658;2024-03-02T07:58:03;14.88;;;10.27;;
29120;SDS011;16191;49.548;8.658;2024-03-02T08:00:30;14.25;;;8.88;;
29120;SDS011;16191;49.548;8.658;2024-03-02T08:02:58;15.05;;;10.00;;
29120;SDS011;16191;49.548;8.658;2024-03-02T08:05:25;17.25;;;9.07;;
29120;SDS011;16191;49.548;8.658;2024-03-02T08:07:53;12.82;;;8.23;;
29120;SDS011;16191;49.548;8.658;2024-03-02T08:10:20;13.98;;;8.73;;
29120;SDS011;16191;49.548;8.658;2024-03-02T08:12:47;14.77;;;8.63;;
29120;SDS011;16191;49.548;8.658;2024-03-02T08:15:14;14.27;;;8.55;;
29120;SDS011;16191;49.548;8.658;2024-03-02T08:17:41;14.60;;;9.05;;
29120;SDS011;16191;49.548;8.658;2024-03-02T08:20:12;13.95;;;9.60;;
29120;SDS011;16191;49.548;8.658;2024-03-02T08:22:39;16.20;;;10.20;;
29120;SDS011;16191;49.548;8.658;2024-03-02T08:25:06;18.08;;;11.45;;
29120;SDS011;16191;49.548;8.658;2024-03-02T08:27:34;17.77;;;10.63;;
29120;SDS011;16191;49.548;8.658;2024-03-02T08:30:02;14.98;;;9.90;;
29120;SDS011;16191;49.548;8.658;2024-03-02T08:32:33;14.95;;;10.18;;
29120;SDS011;16191;49.548;8.658;2024-03-02T08:35:00;16.42;;;10.18;;
29120;SDS011;16191;49.548;8.658;2024-03-02T08:37:27;19.85;;;11.02;;
29120;SDS011;16191;49.548;8.658;2024-03-02T08:39:53;15.40;;;10.45;;
29120;SDS011;16191;49.548;8.658;2024-03-02T08:42:21;13.93;;;9.60;;
29120;SDS011;16191;49.548;8.658;2024-03-02T08:44:48;14.52;;;9.75;;
29120;SDS011;16191;49.548;8.658;2024-03-02T08:47:16;17.70;;;8.75;;
29120;SDS011;16191;49.548;8.658;2024-03-02T08:49:43;14.13;;;9.35;;
29120;SDS011;16191;49.548;8.658;2024-03-02T08:52:09;15.80;;;9.40;;
29120;SDS011;16191;49.548;8.658;2024-03-02T08:54:36;13.65;;;8.95;;
29120;SDS011;16191;49.548;8.658;2024-03-02T08:57:04;14.75;;;9.57;;
29120;SDS011;16191;49.548;8.658;2024-03-02T08:59:31;16.73;;;9.55;;
29120;SDS011;16191;49.548;8.658;2024-03-02T09:01:58;13.90;;;9.23;;
29120;SDS011;16191;49.548;8.658;2024-03-02T09:04:26;17.00;;;9.23;;
29120;SDS011;16191;49.548;8.658;2024-03-02T09:06:54;15.15;;;9.25;;
29120;SDS011;16191;49.548;8.658;2024-03-02T09:09:22;13.75;;;9.10;;
29120;SDS011;16191;49.548;8.658;2024-03-02T09:11:48;15.52;;;9.80;;
29120;SDS011;16191;49.548;8.658;2024-03-02T09:14:15;13.27;;;8.93;;
29120;SDS011;16191;49.548;8.658;2024-03-02T09:16:42;13.90;;;8.63;;
29120;SDS011;16191;49.548;8.658;2024-03-02T09:19:09;14.32;;;9.48;;
29120;SDS011;16191;49.548;8.658;2024-03-02T09:21:37;19.70;;;9.57;;
29120;SDS011;16191;49.548;8.658;2024-03-02T09:24:04;13.98;;;8.50;;
29120;SDS011;16191;49.548;8.658;2024-03-02T09:26:33;12.40;;;8.48;;
29120;SDS011;16191;49.548;8.658;2024-03-02T09:28:59;14.30;;;9.38;;
29120;SDS011;16191;49.548;8.658;2024-03-02T09:31:26;13.85;;;8.95;;
29120;SDS011;16191;49.548;8.658;2024-03-02T09:33:53;13.98;;;8.82;;
29120;SDS011;16191;49.548;8.658;2024-03-02T09:36:21;16.23;;;8.88;;
29120;SDS011;16191;49.548;8.658;2024-03-02T09:38:49;12.35;;;8.35;;
29120;SDS011;16191;49.548;8.658;2024-03-02T09:41:16;12.43;;;8.82;;
29120;SDS011;16191;49.548;8.658;2024-03-02T09:43:44;13.13;;;8.90;;
29120;SDS011;16191;49.548;8.658;2024-03-02T09:46:11;15.35;;;8.73;;
29120;SDS011;16191;49.548;8.658;2024-03-02T09:48:38;12.82;;;8.15;;
29120;SDS011;16191;49.548;8.658;2024-03-02T09:51:05;14.20;;;8.65;;
29120;SDS011;16191;49.548;8.658;2024-03-02T09:53:32;14.30;;;8.43;;
29120;SDS011;16191;49.548;8.658;2024-03-02T09:56:00;16.58;;;9.73;;
29120;SDS011;16191;49.548;8.658;2024-03-02T09:58:27;12.70;;;8.63;;
29120;SDS011;16191;49.548;8.658;2024-03-02T10:00:55;17.67;;;8.55;;
29120;SDS011;16191;49.548;8.658;2024-03-02T10:03:25;12.40;;;7.97;;
29120;SDS011;16191;49.548;8.658;2024-03-02T10:05:53;15.10;;;8.93;;
29120;SDS011;16191;49.548;8.658;2024-03-02T10:08:19;12.73;;;7.70;;
29120;SDS011;16191;49.548;8.658;2024-03-02T10:10:46;10.45;;;7.45;;
29120;SDS011;16191;49.548;8.658;2024-03-02T10:13:13;11.27;;;7.65;;
29120;SDS011;16191;49.548;8.658;2024-03-02T10:15:40;11.68;;;8.07;;
29120;SDS011;16191;49.548;8.658;2024-03-02T10:18:08;12.95;;;7.65;;
29120;SDS011;16191;49.548;8.658;2024-03-02T10:20:37;14.88;;;8.23;;
29120;SDS011;16191;49.548;8.658;2024-03-02T10:23:09;11.18;;;7.72;;
29120;SDS011;16191;49.548;8.658;2024-03-02T10:25:37;14.82;;;7.80;;
29120;SDS011;16191;49.548;8.658;2024-03-02T10:28:16;13.32;;;8.27;;
29120;SDS011;16191;49.548;8.658;2024-03-02T10:30:47;11.65;;;7.55;;
29120;SDS011;16191;49.548;8.658;2024-03-02T10:33:16;11.35;;;7.13;;
29120;SDS011;16191;49.548;8.658;2024-03-02T10:35:43;11.73;;;7.13;;
29120;SDS011;16191;49.548;8.658;2024-03-02T10:38:11;10.18;;;7.18;;
29120;SDS011;16191;49.548;8.658;2024-03-02T10:40:38;9.90;;;6.95;;
29120;SDS011;16191;49.548;8.658;2024-03-02T10:43:05;12.15;;;6.88;;
29120;SDS011;16191;49.548;8.658;2024-03-02T10:45:34;11.32;;;6.35;;
29120;SDS011;16191;49.548;8.658;2024-03-02T10:48:01;8.63;;;6.75;;
29120;SDS011;16191;49.548;8.658;2024-03-02T10:50:29;10.30;;;6.38;;
29120;SDS011;16191;49.548;8.658;2024-03-02T10:52:56;11.45;;;7.00;;
29120;SDS011;16191;49.548;8.658;2024-03-02T10:55:23;9.38;;;6.53;;
29120;SDS011;16191;49.548;8.658;2024-03-02T10:57:52;10.23;;;6.18;;
29120;SDS011;16191;49.548;8.658;2024-03-02T11:00:24;11.77;;;5.95;;
29120;SDS011;16191;49.548;8.658;2024-03-02T11:02:56;12.85;;;5.88;;
29120;SDS011;16191;49.548;8.658;2024-03-02T11:05:31;7.38;;;5.07;;
29120;SDS011;16191;49.548;8.658;2024-03-02T11:08:03;8.98;;;5.53;;
29120;SDS011;16191;49.548;8.658;2024-03-02T11:10:37;9.48;;;5.15;;
29120;SDS011;16191;49.548;8.658;2024-03-02T11:13:09;5.07;;;2.95;;
29120;SDS011;16191;49.548;8.658;2024-03-02T11:15:39;6.90;;;4.53;;
29120;SDS011;16191;49.548;8.658;2024-03-02T11:18:06;6.35;;;4.20;;
29120;SDS011;16191;49.548;8.658;2024-03-02T11:20:39;5.03;;;3.10;;
29120;SDS011;16191;49.548;8.658;2024-03-02T11:23:08;5.50;;;2.47;;
29120;SDS011;16191;49.548;8.658;2024-03-02T11:25:35;5.40;;;2.53;;
29120;SDS011;16191;49.548;8.658;2024-03-02T11:28:03;4.78;;;3.22;;
29120;SDS011;16191;49.548;8.658;2024-03-02T11:32:58;3.67;;;3.00;;
29120;SDS011;16191;49.548;8.658;2024-03-02T11:35:25;4.40;;;2.95;;
29120;SDS011;16191;49.548;8.658;2024-03-02T11:37:52;2.53;;;1.77;;
29120;SDS011;16191;49.548;8.658;2024-03-02T11:40:22;4.25;;;1.70;;
29120;SDS011;16191;49.548;8.658;2024-03-02T11:42:50;2.70;;;1.90;;
29120;SDS011;16191;49.548;8.658;2024-03-02T11:45:17;2.88;;;1.52;;
29120;SDS011;16191;49.548;8.658;2024-03-02T11:47:56;2.90;;;1.67;;
29120;SDS011;16191;49.548;8.658;2024-03-02T11:50:30;3.45;;;1.80;;
29120;SDS011;16191;49.548;8.658;2024-03-02T11:53:01;3.35;;;1.60;;
29120;SDS011;16191;49.548;8.658;2024-03-02T11:55:32;2.35;;;1.60;;
29120;SDS011;16191;49.548;8.658;2024-03-02T11:58:05;2.85;;;1.80;;
29120;SDS011;16191;49.548;8.658;2024-03-02T12:03:03;3.60;;;1.45;;
29120;SDS011;16191;49.548;8.658;2024-03-02T12:05:34;4.03;;;1.40;;
29120;SDS011;16191;49.548;8.658;2024-03-02T12:08:02;2.60;;;1.83;;
29120;SDS011;16191;49.548;8.658;2024-03-02T12:10:30;2.88;;;2.00;;
29120;SDS011;16191;49.548;8.658;2024-03-02T12:12:58;3.10;;;1.77;;
29120;SDS011;16191;49.548;8.658;2024-03-02T12:15:26;4.05;;;1.90;;
29120;SDS011;16191;49.548;8.658;2024-03-02T12:17:57;4.88;;;2.47;;
29120;SDS011;16191;49.548;8.658;2024-03-02T12:20:26;3.63;;;1.90;;
29120;SDS011;16191;49.548;8.658;2024-03-02T12:22:57;3.33;;;2.10;;
29120;SDS011;16191;49.548;8.658;2024-03-02T12:25:25;2.55;;;1.67;;
29120;SDS011;16191;49.548;8.658;2024-03-02T12:27:54;3.08;;;2.15;;
29120;SDS011;16191;49.548;8.658;2024-03-02T12:30:22;3.38;;;1.77;;
29120;SDS011;16191;49.548;8.658;2024-03-02T12:32:49;2.42;;;1.73;;
29120;SDS011;16191;49.548;8.658;2024-03-02T12:35:17;2.60;;;1.20;;
29120;SDS011;16191;49.548;8.658;2024-03-02T12:37:45;1.60;;;1.17;;
29120;SDS011;16191;49.548;8.658;2024-03-02T12:40:13;2.08;;;1.52;;
29120;SDS011;16191;49.548;8.658;2024-03-02T12:42:40;4.68;;;1.48;;
29120;SDS011;16191;49.548;8.658;2024-03-02T12:45:08;2.25;;;1.10;;
29120;SDS011;16191;49.548;8.658;2024-03-02T12:47:35;2.60;;;1.30;;
29120;SDS011;16191;49.548;8.658;2024-03-02T12:50:06;2.38;;;1.10;;
29120;SDS011;16191;49.548;8.658;2024-03-02T12:52:34;1.48;;;1.23;;
29120;SDS011;16191;49.548;8.658;2024-03-02T12:55:01;2.05;;;1.02;;
29120;SDS011;16191;49.548;8.658;2024-03-02T12:57:31;1.63;;;1.10;;
29120;SDS011;16191;49.548;8.658;2024-03-02T13:00:04;2.03;;;1.27;;
29120;SDS011;16191;49.548;8.658;2024-03-02T13:02:39;0.80;;;0.80;;
29120;SDS011;16191;49.548;8.658;2024-03-02T13:05:08;1.50;;;1.38;;
29120;SDS011;16191;49.548;8.658;2024-03-02T13:07:37;1.45;;;1.33;;
29120;SDS011;16191;49.548;8.658;2024-03-02T13:10:08;1.85;;;1.20;;
29120;SDS011;16191;49.548;8.658;2024-03-02T13:12:36;1.30;;;1.20;;
29120;SDS011;16191;49.548;8.658;2024-03-02T13:15:03;4.57;;;1.60;;
29120;SDS011;16191;49.548;8.658;2024-03-02T13:17:34;5.65;;;1.20;;
29120;SDS011;16191;49.548;8.658;2024-03-02T13:20:04;1.80;;;1.08;;
29120;SDS011;16191;49.548;8.658;2024-03-02T13:22:35;1.00;;;0.95;;
29120;SDS011;16191;49.548;8.658;2024-03-02T13:25:02;1.05;;;0.82;;
29120;SDS011;16191;49.548;8.658;2024-03-02T13:27:33;2.15;;;1.20;;
29120;SDS011;16191;49.548;8.658;2024-03-02T13:30:01;1.10;;;1.00;;
29120;SDS011;16191;49.548;8.658;2024-03-02T13:32:29;1.42;;;1.10;;
29120;SDS011;16191;49.548;8.658;2024-03-02T13:34:55;2.35;;;1.10;;
29120;SDS011;16191;49.548;8.658;2024-03-02T13:37:22;1.25;;;0.93;;
29120;SDS011;16191;49.548;8.658;2024-03-02T13:39:49;2.30;;;1.30;;
29120;SDS011;16191;49.548;8.658;2024-03-02T13:42:16;1.77;;;1.20;;
29120;SDS011;16191;49.548;8.658;2024-03-02T13:44:43;1.83;;;1.00;;
29120;SDS011;16191;49.548;8.658;2024-03-02T13:47:13;1.95;;;1.27;;
29120;SDS011;16191;49.548;8.658;2024-03-02T13:49:41;1.35;;;0.90;;
29120;SDS011;16191;49.548;8.658;2024-03-02T13:52:12;1.60;;;1.10;;
29120;SDS011;16191;49.548;8.658;2024-03-02T13:54:44;0.95;;;0.85;;
29120;SDS011;16191;49.548;8.658;2024-03-02T13:57:12;1.55;;;1.17;;
29120;SDS011;16191;49.548;8.658;2024-03-02T13:59:40;1.30;;;1.08;;
29120;SDS011;16191;49.548;8.658;2024-03-02T14:02:09;0.95;;;0.80;;
29120;SDS011;16191;49.548;8.658;2024-03-02T14:04:36;1.50;;;1.15;;
29120;SDS011;16191;49.548;8.658;2024-03-02T14:07:04;0.85;;;0.85;;
29120;SDS011;16191;49.548;8.658;2024-03-02T14:09:35;4.88;;;0.82;;
29120;SDS011;16191;49.548;8.658;2024-03-02T14:12:03;1.60;;;1.00;;
29120;SDS011;16191;49.548;8.658;2024-03-02T14:14:31;1.02;;;0.82;;
29120;SDS011;16191;49.548;8.658;2024-03-02T14:16:58;1.67;;;0.80;;
29120;SDS011;16191;49.548;8.658;2024-03-02T14:19:29;1.95;;;0.60;;
29120;SDS011;16191;49.548;8.658;2024-03-02T14:21:57;1.02;;;0.75;;
29120;SDS011;16191;49.548;8.658;2024-03-02T14:24:24;0.63;;;0.60;;
29120;SDS011;16191;49.548;8.658;2024-03-02T14:26:52;1.67;;;0.80;;
29120;SDS011;16191;49.548;8.658;2024-03-02T14:29:28;1.02;;;0.60;;
29120;SDS011;16191;49.548;8.658;2024-03-02T14:31:55;0.85;;;0.55;;
29120;SDS011;16191;49.548;8.658;2024-03-02T14:34:22;1.83;;;0.95;;
29120;SDS011;16191;49.548;8.658;2024-03-02T14:36:49;0.95;;;0.70;;
29120;SDS011;16191;49.548;8.658;2024-03-02T14:39:16;1.08;;;0.68;;
29120;SDS011;16191;49.548;8.658;2024-03-02T14:41:42;1.48;;;0.73;;
29120;SDS011;16191;49.548;8.658;2024-03-02T14:44:09;1.40;;;0.60;;
29120;SDS011;16191;49.548;8.658;2024-03-02T14:46:36;1.27;;;0.57;;
29120;SDS011;16191;49.548;8.658;2024-03-02T14:49:04;0.50;;;0.50;;
29120;SDS011;16191;49.548;8.658;2024-03-02T14:51:31;0.88;;;0.82;;
29120;SDS011;16191;49.548;8.658;2024-03-02T14:53:58;2.97;;;1.20;;
29120;SDS011;16191;49.548;8.658;2024-03-02T14:56:24;1.70;;;1.00;;